createdAt,value
2023-05-10T00:01:59.515Z,78.49
2023-05-10T00:05:02.905Z,78.80
2023-05-10T00:08:05.759Z,78.92
2023-05-10T00:11:08.712Z,78.97
2023-05-10T00:14:11.359Z,79.40
2023-05-10T00:17:14.331Z,79.51
2023-05-10T00:20:17.274Z,79.88
2023-05-10T00:23:20.505Z,80.17
2023-05-10T00:26:23.123Z,80.18
2023-05-10T00:29:26.888Z,80.58
2023-05-10T00:32:29.609Z,80.79
2023-05-10T00:35:32.648Z,81.29
2023-05-10T00:38:35.620Z,81.39
2023-05-10T00:41:39.217Z,81.56
2023-05-10T00:44:42.277Z,81.71
2023-05-10T00:47:46.392Z,82.08
2023-05-10T00:50:49.135Z,82.23
2023-05-10T00:53:52.519Z,82.26
2023-05-10T00:56:55.429Z,82.55
2023-05-10T00:59:59.203Z,83.28
2023-05-10T01:03:02.384Z,84.02
2023-05-10T01:06:05.870Z,84.06
2023-05-10T01:09:08.720Z,84.21
2023-05-10T01:12:11.887Z,84.48
2023-05-10T01:15:16.426Z,84.36
2023-05-10T01:18:22.754Z,84.66
2023-05-10T01:21:49.498Z,84.22
2023-05-10T01:25:01.736Z,84.71
2023-05-10T01:28:18.470Z,85.50
2023-05-10T01:31:52.334Z,85.48
2023-05-10T01:35:02.190Z,85.78
2023-05-10T01:38:20.125Z,85.95
2023-05-10T01:41:46.325Z,86.20
2023-05-10T01:45:13.804Z,86.42
2023-05-10T01:48:18.877Z,86.75
2023-05-10T01:51:26.223Z,86.69
2023-05-10T01:54:30.189Z,86.99
2023-05-10T01:57:43.327Z,87.30
2023-05-10T02:00:47.308Z,87.67
2023-05-10T02:03:52.481Z,87.92
2023-05-10T02:06:56.224Z,88.57
2023-05-10T02:09:59.984Z,88.29
2023-05-10T02:13:04.585Z,88.77
2023-05-10T02:16:08.582Z,89.18
2023-05-10T02:19:13.291Z,89.89
2023-05-10T02:22:17.686Z,89.82
2023-05-10T02:25:22.376Z,89.93
2023-05-10T02:28:26.113Z,90.15
2023-05-10T02:31:29.346Z,90.04
2023-05-10T02:34:32.982Z,89.57
2023-05-10T02:37:38.485Z,89.65
2023-05-10T02:40:43.532Z,89.96
2023-05-10T02:43:48.201Z,89.64
2023-05-10T02:46:51.128Z,89.59
2023-05-10T02:49:54.596Z,89.51
2023-05-10T02:53:02.724Z,89.48
2023-05-10T02:56:14.590Z,89.36
2023-05-10T02:59:17.334Z,89.80
2023-05-10T03:02:21.556Z,90.49
2023-05-10T03:05:24.478Z,91.29
2023-05-10T03:08:30.362Z,91.35
2023-05-10T03:11:49.680Z,91.46
2023-05-10T03:15:08.431Z,91.74
2023-05-10T03:18:16.716Z,91.67
2023-05-10T03:21:21.627Z,91.97
2023-05-10T03:24:28.476Z,92.01
2023-05-10T03:27:33.344Z,91.87
2023-05-10T03:30:37.689Z,91.77
2023-05-10T03:33:52.151Z,92.07
2023-05-10T03:36:56.774Z,91.96
2023-05-10T03:40:00.561Z,92.02
2023-05-10T03:43:03.919Z,91.45
2023-05-10T03:46:07.277Z,91.13
2023-05-10T03:49:10.237Z,91.23
2023-05-10T03:52:13.377Z,91.05
2023-05-10T03:55:17.246Z,91.04
2023-05-10T03:58:20.384Z,90.50
2023-05-10T04:01:23.245Z,90.06
2023-05-10T04:04:26.245Z,90.21
2023-05-10T04:07:28.869Z,89.76
2023-05-10T04:10:32.508Z,90.18
2023-05-10T04:13:35.714Z,90.12
2023-05-10T04:16:38.733Z,90.37
2023-05-10T04:19:41.394Z,89.75
2023-05-10T04:22:44.371Z,89.74
2023-05-10T04:25:47.101Z,88.90
2023-05-10T04:28:50.018Z,88.20
2023-05-10T04:31:52.611Z,87.94
2023-05-10T04:34:55.573Z,87.05
2023-05-10T04:37:58.136Z,86.63
2023-05-10T04:41:09.061Z,86.74
2023-05-10T04:44:11.794Z,85.74
2023-05-10T04:47:14.685Z,85.70
2023-05-10T04:50:18.639Z,84.35
2023-05-10T04:53:22.136Z,83.80
2023-05-10T04:56:24.769Z,82.94
2023-05-10T04:59:27.752Z,81.20
2023-05-10T05:02:30.686Z,80.95
2023-05-10T05:05:33.709Z,80.75
2023-05-10T05:08:36.384Z,79.83
2023-05-10T05:11:39.579Z,80.05
2023-05-10T05:14:42.381Z,79.53
2023-05-10T05:17:45.699Z,79.61
2023-05-10T05:20:48.450Z,79.06
2023-05-10T05:23:51.427Z,78.93
2023-05-10T05:26:54.065Z,77.36
2023-05-10T05:29:58.327Z,76.16
2023-05-10T05:33:00.970Z,76.39
2023-05-10T05:36:05.641Z,75.18
2023-05-10T05:39:08.442Z,75.83
2023-05-10T05:42:12.357Z,75.54
2023-05-10T05:45:18.722Z,74.89
2023-05-10T05:48:22.199Z,75.65
2023-05-10T05:51:24.912Z,74.90
2023-05-10T05:54:28.803Z,74.81
2023-05-10T05:57:31.609Z,73.76
2023-05-10T06:00:34.938Z,74.06
2023-05-10T06:03:37.978Z,72.61
2023-05-10T06:06:40.697Z,70.80
2023-05-10T06:09:43.693Z,70.78
2023-05-10T06:12:46.361Z,69.35
2023-05-10T06:15:49.434Z,68.46
2023-05-10T06:18:52.263Z,68.23
2023-05-10T06:21:55.100Z,67.63
2023-05-10T06:24:57.788Z,66.62
2023-05-10T06:28:01.003Z,66.86
2023-05-10T06:31:03.664Z,67.95
2023-05-10T06:34:09.025Z,66.01
2023-05-10T06:37:11.824Z,65.54
2023-05-10T06:40:14.863Z,66.10
2023-05-10T06:43:17.756Z,65.24
2023-05-10T06:46:20.660Z,65.45
2023-05-10T06:49:23.335Z,65.81
2023-05-10T06:52:26.353Z,65.65
2023-05-10T06:55:50.416Z,65.73
2023-05-10T06:58:53.769Z,63.88
2023-05-10T07:01:56.478Z,63.50
2023-05-10T07:05:02.712Z,64.59
2023-05-10T07:08:06.012Z,63.64
2023-05-10T07:11:08.933Z,63.51
2023-05-10T07:14:11.554Z,63.50
2023-05-10T07:17:14.549Z,62.65
2023-05-10T07:20:17.331Z,60.97
2023-05-10T07:23:20.465Z,59.24
2023-05-10T07:26:23.139Z,61.30
2023-05-10T07:29:26.477Z,61.15
2023-05-10T07:32:29.234Z,60.02
2023-05-10T07:35:32.274Z,60.30
2023-05-10T07:38:35.091Z,59.58
2023-05-10T07:41:38.694Z,59.61
2023-05-10T07:44:41.315Z,57.98
2023-05-10T07:47:44.325Z,57.44
2023-05-10T07:50:47.212Z,57.44
2023-05-10T07:53:50.198Z,56.11
2023-05-10T07:56:52.988Z,56.29
2023-05-10T07:59:55.941Z,55.31
2023-05-10T08:02:58.748Z,55.32
2023-05-10T08:06:01.790Z,54.93
2023-05-10T08:09:04.461Z,54.19
2023-05-10T08:12:07.330Z,55.13
2023-05-10T08:15:10.747Z,55.67
2023-05-10T08:18:13.766Z,55.09
2023-05-10T08:21:16.786Z,53.47
2023-05-10T08:24:19.757Z,53.20
2023-05-10T08:27:22.903Z,51.98
2023-05-10T08:30:25.793Z,51.56
2023-05-10T08:33:28.388Z,50.66
2023-05-10T08:36:31.275Z,51.35
2023-05-10T08:39:36.878Z,51.00
2023-05-10T08:42:44.428Z,51.02
2023-05-10T08:45:48.094Z,52.27
2023-05-10T08:48:53.149Z,53.96
2023-05-10T08:51:57.022Z,52.75
2023-05-10T08:55:00.048Z,50.08
2023-05-10T08:58:02.919Z,49.14
2023-05-10T09:01:09.863Z,51.09
2023-05-10T09:04:14.399Z,51.10
2023-05-10T09:07:18.231Z,51.66
2023-05-10T09:10:22.759Z,51.47
2023-05-10T09:13:26.180Z,49.28
2023-05-10T09:16:29.109Z,47.66
2023-05-10T09:19:32.039Z,46.47
2023-05-10T09:22:36.071Z,46.48
2023-05-10T09:25:39.772Z,46.20
2023-05-10T09:28:55.562Z,46.40
2023-05-10T09:31:58.488Z,46.91
2023-05-10T09:35:14.381Z,46.14
2023-05-10T09:38:17.428Z,47.08
2023-05-10T09:41:22.506Z,46.04
2023-05-10T09:44:27.098Z,46.17
2023-05-10T09:47:29.835Z,46.80
2023-05-10T09:50:32.797Z,46.83
2023-05-10T09:53:35.408Z,46.93
2023-05-10T09:56:40.824Z,47.65
2023-05-10T09:59:46.324Z,47.43
2023-05-10T10:03:00.278Z,46.36
2023-05-10T10:06:03.439Z,46.84
2023-05-10T10:09:07.548Z,46.87
2023-05-10T10:12:10.639Z,46.46
2023-05-10T10:15:15.898Z,47.88
2023-05-10T10:18:24.601Z,48.49
2023-05-10T10:21:27.906Z,48.04
2023-05-10T10:24:30.893Z,47.56
2023-05-10T10:27:52.070Z,49.37
2023-05-10T10:30:57.495Z,47.46
2023-05-10T10:34:30.614Z,45.32
2023-05-10T10:37:46.386Z,45.54
2023-05-10T10:40:49.120Z,46.46
2023-05-10T10:44:27.420Z,45.80
2023-05-10T10:47:34.090Z,45.76
2023-05-10T10:50:46.002Z,46.00
2023-05-10T10:53:49.308Z,45.43
2023-05-10T10:57:11.704Z,44.00
2023-05-10T11:00:23.130Z,42.47
2023-05-10T11:03:26.555Z,43.22
2023-05-10T11:06:33.583Z,43.26
2023-05-10T11:09:41.124Z,42.78
2023-05-10T11:13:03.633Z,41.44
2023-05-10T11:16:26.472Z,40.07
2023-05-10T11:19:29.450Z,40.70
2023-05-10T11:22:51.828Z,39.63
2023-05-10T11:25:55.529Z,38.92
2023-05-10T11:29:01.701Z,39.04
2023-05-10T11:32:09.226Z,38.53
2023-05-10T11:35:12.829Z,38.02
2023-05-10T11:38:15.922Z,39.64
2023-05-10T11:41:22.620Z,41.13
2023-05-10T11:44:31.116Z,41.53
2023-05-10T11:47:34.161Z,41.20
2023-05-10T11:50:36.902Z,40.57
2023-05-10T11:53:40.077Z,40.83
2023-05-10T11:56:42.779Z,40.73
2023-05-10T11:59:46.768Z,40.80
2023-05-10T12:02:50.133Z,42.08
2023-05-10T12:05:53.465Z,42.49
2023-05-10T12:08:56.266Z,41.76
2023-05-10T12:11:59.606Z,40.06
2023-05-10T12:15:04.400Z,39.27
2023-05-10T12:18:11.453Z,42.02
2023-05-10T12:21:14.381Z,40.71
2023-05-10T12:24:19.046Z,39.42
2023-05-10T12:27:21.748Z,38.36
2023-05-10T12:30:30.073Z,39.71
2023-05-10T12:33:45.707Z,39.09
2023-05-10T12:36:53.406Z,39.58
2023-05-10T12:39:56.422Z,38.86
2023-05-10T12:42:59.781Z,37.17
2023-05-10T12:46:17.386Z,37.36
2023-05-10T12:49:20.706Z,37.52
2023-05-10T12:52:23.555Z,37.69
2023-05-10T12:55:26.555Z,38.91
2023-05-10T12:58:35.669Z,39.17
2023-05-10T13:01:39.599Z,38.33
2023-05-10T13:04:42.992Z,36.17
2023-05-10T13:07:46.295Z,36.63
2023-05-10T13:10:49.493Z,37.54
2023-05-10T13:13:52.710Z,38.17
2023-05-10T13:16:55.387Z,39.66
2023-05-10T13:19:58.404Z,40.30
2023-05-10T13:23:01.286Z,40.47
2023-05-10T13:26:04.347Z,39.96
2023-05-10T13:29:07.033Z,38.65
2023-05-10T13:32:10.046Z,38.12
2023-05-10T13:35:12.600Z,36.48
2023-05-10T13:38:15.574Z,35.41
2023-05-10T13:41:18.672Z,36.41
2023-05-10T13:44:21.690Z,38.27
2023-05-10T13:47:24.269Z,39.88
2023-05-10T13:50:28.037Z,39.00
2023-05-10T13:53:30.885Z,38.79
2023-05-10T13:56:33.946Z,38.49
2023-05-10T13:59:36.566Z,38.79
2023-05-10T14:02:39.619Z,39.51
2023-05-10T14:05:42.730Z,38.93
2023-05-10T14:08:45.800Z,39.30
2023-05-10T14:11:48.813Z,39.42
2023-05-10T14:14:51.495Z,39.48
2023-05-10T14:17:54.482Z,39.41
2023-05-10T14:20:57.476Z,39.86
2023-05-10T14:24:00.386Z,38.60
2023-05-10T14:27:03.338Z,38.66
2023-05-10T14:30:07.192Z,38.86
2023-05-10T14:33:10.014Z,39.42
2023-05-10T14:36:13.049Z,38.42
2023-05-10T14:39:15.734Z,38.58
2023-05-10T14:42:18.578Z,39.33
2023-05-10T14:45:22.124Z,40.11
2023-05-10T14:48:24.969Z,40.43
2023-05-10T14:51:27.770Z,40.25
2023-05-10T14:54:31.118Z,40.49
2023-05-10T14:57:34.435Z,39.99
2023-05-10T15:00:37.391Z,40.77
2023-05-10T15:03:40.397Z,40.58
2023-05-10T15:06:43.868Z,39.87
2023-05-10T15:09:46.488Z,39.55
2023-05-10T15:12:49.397Z,40.03
2023-05-10T15:15:52.086Z,39.54
2023-05-10T15:18:55.002Z,37.98
2023-05-10T15:21:57.718Z,38.08
2023-05-10T15:25:00.775Z,38.75
2023-05-10T15:28:03.893Z,39.35
2023-05-10T15:31:06.866Z,39.66
2023-05-10T15:34:09.550Z,40.61
2023-05-10T15:37:12.600Z,40.55
2023-05-10T15:40:15.298Z,41.12
2023-05-10T15:43:18.111Z,41.62
2023-05-10T15:46:20.816Z,41.16
2023-05-10T15:49:23.758Z,41.42
2023-05-10T15:52:26.382Z,41.09
2023-05-10T15:55:29.267Z,41.45
2023-05-10T15:58:32.379Z,41.09
2023-05-10T16:01:35.270Z,40.26
2023-05-10T16:04:39.155Z,40.46
2023-05-10T16:07:42.398Z,40.03
2023-05-10T16:10:45.384Z,40.93
2023-05-10T16:13:48.034Z,41.15
2023-05-10T16:16:51.590Z,41.50
2023-05-10T16:19:54.353Z,41.97
2023-05-10T16:22:57.241Z,42.50
2023-05-10T16:25:59.924Z,42.39
2023-05-10T16:29:02.961Z,41.70
2023-05-10T16:32:05.754Z,41.78
2023-05-10T16:35:09.180Z,41.87
2023-05-10T16:38:12.126Z,42.38
2023-05-10T16:41:15.017Z,43.33
2023-05-10T16:44:19.657Z,43.90
2023-05-10T16:47:26.697Z,43.98
2023-05-10T16:50:29.609Z,44.77
2023-05-10T16:53:32.639Z,44.34
2023-05-10T16:56:35.248Z,45.20
2023-05-10T16:59:38.342Z,45.41
2023-05-10T17:02:41.214Z,45.67
2023-05-10T17:05:44.181Z,46.27
2023-05-10T17:08:46.963Z,46.44
2023-05-10T17:11:49.923Z,46.60
2023-05-10T17:14:52.437Z,46.50
2023-05-10T17:17:56.163Z,46.49
2023-05-10T17:20:58.808Z,46.97
2023-05-10T17:24:01.735Z,47.41
2023-05-10T17:27:04.510Z,47.31
2023-05-10T17:30:08.153Z,47.73
2023-05-10T17:33:10.755Z,47.95
2023-05-10T17:36:13.723Z,47.94
2023-05-10T17:39:16.315Z,48.09
2023-05-10T17:42:20.993Z,48.33
2023-05-10T17:45:23.652Z,48.63
2023-05-10T17:48:26.856Z,48.99
2023-05-10T17:51:29.739Z,49.49
2023-05-10T17:54:32.782Z,49.62
2023-05-10T17:57:38.130Z,50.02
2023-05-10T18:00:41.153Z,50.31
2023-05-10T18:03:49.450Z,50.66
2023-05-10T18:06:52.091Z,51.01
2023-05-10T18:09:55.091Z,51.27
2023-05-10T18:12:58.673Z,51.67
2023-05-10T18:16:01.566Z,52.27
2023-05-10T18:19:04.397Z,52.21
2023-05-10T18:22:10.524Z,52.47
2023-05-10T18:25:13.518Z,52.92
2023-05-10T18:28:16.458Z,53.29
2023-05-10T18:31:19.727Z,53.73
2023-05-10T18:34:22.818Z,53.81
2023-05-10T18:37:25.592Z,53.81
2023-05-10T18:40:28.952Z,54.12
2023-05-10T18:43:31.626Z,54.38
2023-05-10T18:46:35.792Z,54.79
2023-05-10T18:49:38.993Z,54.94
2023-05-10T18:52:42.661Z,55.49
2023-05-10T18:55:46.556Z,56.20
2023-05-10T18:58:49.766Z,56.64
2023-05-10T19:01:54.244Z,56.84
2023-05-10T19:04:59.701Z,57.64
2023-05-10T19:08:02.421Z,57.48
2023-05-10T19:11:05.398Z,58.02
2023-05-10T19:14:08.170Z,58.49
2023-05-10T19:17:12.623Z,59.13
2023-05-10T19:20:16.222Z,59.60
2023-05-10T19:23:19.340Z,60.02
2023-05-10T19:26:22.415Z,60.10
2023-05-10T19:29:26.513Z,60.04
2023-05-10T19:32:29.606Z,59.88
2023-05-10T19:35:32.636Z,60.01
2023-05-10T19:38:35.461Z,59.98
2023-05-10T19:41:38.489Z,59.95
2023-05-10T19:44:41.288Z,59.55
2023-05-10T19:47:44.351Z,59.51
2023-05-10T19:50:47.250Z,59.57
2023-05-10T19:53:50.445Z,59.48
2023-05-10T19:56:53.215Z,59.32
2023-05-10T19:59:56.496Z,59.30
2023-05-10T20:02:59.359Z,59.06
2023-05-10T20:06:03.021Z,59.03
2023-05-10T20:09:05.575Z,58.92
2023-05-10T20:12:08.914Z,58.86
2023-05-10T20:15:11.836Z,59.09
2023-05-10T20:18:14.975Z,59.03
2023-05-10T20:21:17.724Z,59.28
2023-05-10T20:24:20.861Z,59.66
2023-05-10T20:27:23.510Z,59.28
2023-05-10T20:30:26.873Z,58.95
2023-05-10T20:33:30.176Z,58.92
2023-05-10T20:36:33.080Z,58.71
2023-05-10T20:39:35.946Z,58.39
2023-05-10T20:42:38.810Z,58.39
2023-05-10T20:45:41.667Z,57.53
2023-05-10T20:48:44.548Z,57.85
2023-05-10T20:51:47.147Z,57.53
2023-05-10T20:54:50.013Z,57.59
2023-05-10T20:57:52.950Z,57.50
2023-05-10T21:00:55.836Z,57.69
2023-05-10T21:03:58.386Z,57.31
2023-05-10T21:07:01.327Z,57.40
2023-05-10T21:10:04.133Z,57.42
2023-05-10T21:13:07.146Z,57.30
2023-05-10T21:16:09.718Z,57.72
2023-05-10T21:19:12.707Z,57.56
2023-05-10T21:22:15.384Z,57.27
2023-05-10T21:25:18.503Z,57.55
2023-05-10T21:28:21.114Z,57.23
2023-05-10T21:31:24.037Z,57.05
2023-05-10T21:34:26.959Z,57.27
2023-05-10T21:37:29.862Z,57.99
2023-05-10T21:40:32.453Z,58.12
2023-05-10T21:43:35.359Z,58.02
2023-05-10T21:46:37.884Z,58.00
2023-05-10T21:49:40.834Z,58.57
2023-05-10T21:52:43.548Z,58.37
2023-05-10T21:55:46.595Z,58.68
2023-05-10T21:58:49.196Z,58.93
2023-05-10T22:01:52.077Z,58.17
2023-05-10T22:04:55.077Z,58.03
2023-05-10T22:07:57.723Z,57.89
2023-05-10T22:11:00.644Z,57.81
2023-05-10T22:14:03.318Z,57.76
2023-05-10T22:17:06.235Z,57.59
2023-05-10T22:20:09.585Z,57.59
2023-05-10T22:23:12.938Z,58.19
2023-05-10T22:26:15.571Z,57.79
2023-05-10T22:29:18.446Z,58.00
2023-05-10T22:32:21.041Z,58.33
2023-05-10T22:35:23.870Z,58.52
2023-05-10T22:38:26.562Z,58.32
2023-05-10T22:41:29.419Z,58.31
2023-05-10T22:44:32.062Z,58.98
2023-05-10T22:47:35.022Z,59.52
2023-05-10T22:50:37.756Z,59.70
2023-05-10T22:53:41.434Z,60.71
2023-05-10T22:56:44.285Z,61.28
2023-05-10T22:59:48.304Z,61.83
2023-05-10T23:02:51.675Z,62.54
2023-05-10T23:05:54.556Z,62.93
2023-05-10T23:08:57.196Z,63.26
2023-05-10T23:12:00.004Z,63.80
2023-05-10T23:15:02.619Z,64.21
2023-05-10T23:18:06.044Z,64.79
2023-05-10T23:21:08.744Z,65.40
2023-05-10T23:24:12.366Z,65.75
2023-05-10T23:27:15.118Z,66.44
2023-05-10T23:30:18.258Z,66.77
2023-05-10T23:33:20.963Z,67.66
2023-05-10T23:36:23.892Z,67.77
2023-05-10T23:39:26.567Z,67.90
2023-05-10T23:42:29.552Z,67.67
2023-05-10T23:45:32.366Z,67.90
2023-05-10T23:48:35.518Z,68.11
2023-05-10T23:51:38.114Z,68.44
2023-05-10T23:54:41.317Z,68.85
2023-05-10T23:57:44.124Z,69.58
